createdAt,value
2018-03-25T00:00:34.457Z,15.70
2018-03-25T00:03:00.697Z,14.98
2018-03-25T00:05:26.938Z,16.05
2018-03-25T00:07:53.124Z,14.77
2018-03-25T00:10:19.351Z,13.27
2018-03-25T00:12:45.544Z,13.68
2018-03-25T00:15:12.539Z,13.70
2018-03-25T00:17:38.752Z,14.05
2018-03-25T00:20:05.004Z,14.18
2018-03-25T00:22:31.230Z,14.15
2018-03-25T00:24:57.445Z,15.32
2018-03-25T00:27:23.657Z,14.52
2018-03-25T00:29:49.881Z,12.30
2018-03-25T00:32:16.072Z,11.02
2018-03-25T00:34:43.061Z,10.00
2018-03-25T00:37:09.339Z,10.77
2018-03-25T00:39:36.311Z,9.70
2018-03-25T00:42:02.560Z,10.45
2018-03-25T00:44:28.771Z,10.60
2018-03-25T00:46:55.076Z,8.45
2018-03-25T00:49:22.079Z,10.27
2018-03-25T00:51:48.522Z,9.40
2018-03-25T00:54:14.724Z,9.68
2018-03-25T00:56:40.937Z,9.98
2018-03-25T00:59:07.160Z,11.95
2018-03-25T01:01:33.401Z,11.12
2018-03-25T01:03:59.630Z,11.02
2018-03-25T01:06:25.862Z,11.85
2018-03-25T01:08:52.106Z,11.50
2018-03-25T01:11:18.332Z,13.00
2018-03-25T01:13:44.586Z,11.05
2018-03-25T01:16:12.686Z,12.18
2018-03-25T01:18:39.649Z,14.05
2018-03-25T01:21:05.849Z,13.55
2018-03-25T01:23:32.853Z,13.52
2018-03-25T01:25:59.033Z,13.90
2018-03-25T01:28:25.952Z,15.35
2018-03-25T01:30:52.208Z,16.05
2018-03-25T01:33:19.190Z,15.57
2018-03-25T01:35:45.440Z,12.70
2018-03-25T01:38:11.665Z,11.90
2018-03-25T01:40:37.945Z,11.95
2018-03-25T01:43:04.920Z,13.20
2018-03-25T01:45:31.118Z,13.82
2018-03-25T01:47:57.328Z,13.57
2018-03-25T01:50:23.518Z,12.52
2018-03-25T01:52:49.755Z,12.88
2018-03-25T01:55:16.036Z,10.73
2018-03-25T01:57:42.254Z,11.40
2018-03-25T02:00:09.229Z,11.80
2018-03-25T02:02:35.425Z,12.37
2018-03-25T02:05:01.663Z,12.18
2018-03-25T02:07:27.872Z,12.65
2018-03-25T02:09:54.093Z,12.88
2018-03-25T02:12:20.283Z,12.13
2018-03-25T02:14:46.521Z,12.10
2018-03-25T02:17:12.780Z,13.43
2018-03-25T02:19:39.022Z,12.93
2018-03-25T02:22:06.029Z,14.40
2018-03-25T02:24:32.223Z,12.85
2018-03-25T02:26:58.501Z,12.63
2018-03-25T02:29:24.743Z,12.23
2018-03-25T02:31:50.954Z,11.63
2018-03-25T02:34:17.197Z,12.73
2018-03-25T02:36:43.394Z,10.95
2018-03-25T02:39:09.672Z,11.57
2018-03-25T02:41:35.874Z,13.00
2018-03-25T02:44:02.098Z,13.75
2018-03-25T02:46:28.337Z,14.55
2018-03-25T02:48:54.552Z,14.55
2018-03-25T02:51:20.763Z,17.67
2018-03-25T02:53:46.956Z,16.65
2018-03-25T02:56:13.190Z,16.58
2018-03-25T02:58:39.407Z,15.73
2018-03-25T03:01:05.676Z,15.80
2018-03-25T03:03:31.860Z,14.00
2018-03-25T03:05:58.114Z,13.10
2018-03-25T03:08:24.354Z,13.32
2018-03-25T03:10:50.626Z,12.00
2018-03-25T03:13:16.922Z,15.82
2018-03-25T03:15:43.152Z,15.50
2018-03-25T03:18:09.357Z,16.42
2018-03-25T03:20:35.594Z,16.70
2018-03-25T03:23:01.822Z,16.77
2018-03-25T03:25:28.028Z,17.60
2018-03-25T03:27:54.205Z,15.52
2018-03-25T03:30:20.434Z,18.35
2018-03-25T03:32:46.659Z,17.95
2018-03-25T03:35:12.844Z,17.70
2018-03-25T03:37:39.127Z,18.77
2018-03-25T03:40:05.329Z,17.35
2018-03-25T03:42:31.535Z,16.37
2018-03-25T03:44:57.801Z,15.52
2018-03-25T03:47:24.059Z,13.35
2018-03-25T03:49:50.325Z,14.48
2018-03-25T03:52:16.542Z,13.00
2018-03-25T03:54:42.784Z,12.77
2018-03-25T03:57:09.002Z,12.27
2018-03-25T03:59:35.194Z,13.48
2018-03-25T04:02:02.184Z,14.13
2018-03-25T04:04:28.391Z,14.25
2018-03-25T04:06:54.657Z,14.40
2018-03-25T04:09:20.864Z,13.80
2018-03-25T04:11:47.073Z,13.38
2018-03-25T04:14:13.365Z,13.23
2018-03-25T04:16:40.393Z,12.95
2018-03-25T04:19:06.620Z,13.02
2018-03-25T04:21:32.839Z,12.20
2018-03-25T04:23:59.074Z,12.45
2018-03-25T04:26:25.318Z,11.38
2018-03-25T04:28:51.756Z,13.18
2018-03-25T04:31:18.032Z,11.60
2018-03-25T04:33:44.274Z,13.62
2018-03-25T04:36:10.516Z,12.55
2018-03-25T04:38:36.794Z,11.60
2018-03-25T04:41:03.001Z,12.95
2018-03-25T04:43:29.234Z,12.15
2018-03-25T04:45:56.145Z,13.02
2018-03-25T04:48:22.412Z,11.80
2018-03-25T04:50:49.397Z,11.65
2018-03-25T04:53:15.633Z,13.20
2018-03-25T04:55:41.936Z,12.68
2018-03-25T04:58:08.141Z,14.00
2018-03-25T05:00:34.381Z,12.50
2018-03-25T05:03:00.620Z,12.70
2018-03-25T05:05:26.865Z,14.38
2018-03-25T05:07:53.102Z,13.60
2018-03-25T05:10:19.322Z,13.13
2018-03-25T05:12:45.573Z,11.60
2018-03-25T05:15:11.813Z,13.82
2018-03-25T05:17:38.064Z,12.48
2018-03-25T05:20:05.088Z,13.95
2018-03-25T05:22:31.291Z,14.85
2018-03-25T05:24:57.533Z,14.43
2018-03-25T05:27:23.777Z,15.10
2018-03-25T05:29:50.040Z,14.82
2018-03-25T05:32:17.012Z,16.60
2018-03-25T05:34:43.220Z,14.75
2018-03-25T05:37:09.431Z,13.07
2018-03-25T05:39:36.369Z,13.40
2018-03-25T05:42:03.319Z,15.40
2018-03-25T05:44:30.295Z,17.35
2018-03-25T05:46:56.528Z,19.83
2018-03-25T05:49:22.764Z,22.05
2018-03-25T05:51:49.016Z,28.42
2018-03-25T05:54:15.269Z,27.85
2018-03-25T05:56:42.230Z,19.33
2018-03-25T05:59:09.192Z,20.67
2018-03-25T06:01:35.406Z,17.95
2018-03-25T06:04:02.364Z,17.15
2018-03-25T06:06:28.591Z,13.45
2018-03-25T06:08:54.805Z,12.57
2018-03-25T06:11:21.765Z,18.55
2018-03-25T06:13:47.981Z,16.60
2018-03-25T06:16:15.012Z,15.68
2018-03-25T06:18:41.978Z,16.00
2018-03-25T06:21:09.305Z,13.52
2018-03-25T06:23:35.497Z,15.18
2018-03-25T06:26:01.717Z,14.85
2018-03-25T06:28:27.943Z,15.88
2018-03-25T06:30:54.152Z,19.42
2018-03-25T06:33:20.497Z,18.83
2018-03-25T06:35:46.697Z,22.02
2018-03-25T06:38:13.008Z,22.45
2018-03-25T06:40:39.410Z,21.48
2018-03-25T06:43:05.673Z,22.35
2018-03-25T06:45:31.883Z,20.70
2018-03-25T06:47:58.118Z,17.05
2018-03-25T06:50:24.306Z,15.85
2018-03-25T06:52:50.518Z,14.35
2018-03-25T06:55:16.704Z,13.65
2018-03-25T06:57:44.971Z,13.77
2018-03-25T07:00:12.003Z,16.80
2018-03-25T07:02:38.252Z,40.63
2018-03-25T07:05:04.484Z,33.28
2018-03-25T07:07:30.794Z,27.77
2018-03-25T07:09:57.135Z,24.50
2018-03-25T07:12:25.228Z,19.08
2018-03-25T07:14:52.192Z,19.58
2018-03-25T07:17:18.416Z,19.08
2018-03-25T07:19:45.486Z,18.85
2018-03-25T07:22:11.743Z,20.65
2018-03-25T07:24:38.080Z,20.37
2018-03-25T07:27:04.277Z,17.37
2018-03-25T07:29:30.521Z,16.73
2018-03-25T07:31:56.770Z,17.90
2018-03-25T07:34:22.960Z,18.12
2018-03-25T07:36:49.212Z,19.52
2018-03-25T07:39:15.451Z,17.92
2018-03-25T07:41:41.707Z,18.15
2018-03-25T07:44:08.669Z,16.37
2018-03-25T07:46:34.876Z,16.10
2018-03-25T07:49:01.865Z,17.75
2018-03-25T07:51:28.105Z,16.67
2018-03-25T07:53:54.332Z,19.00
2018-03-25T07:56:20.541Z,17.17
2018-03-25T07:58:46.771Z,18.75
2018-03-25T08:01:13.042Z,17.67
2018-03-25T08:03:39.293Z,17.95
2018-03-25T08:06:07.340Z,17.35
2018-03-25T08:08:33.544Z,16.60
2018-03-25T08:10:59.757Z,16.08
2018-03-25T08:13:25.996Z,16.25
2018-03-25T08:15:52.225Z,15.43
2018-03-25T08:18:18.443Z,13.43
2018-03-25T08:20:44.626Z,15.90
2018-03-25T08:23:11.606Z,16.23
2018-03-25T08:25:37.836Z,14.65
2018-03-25T08:28:04.092Z,14.68
2018-03-25T08:30:30.279Z,15.60
2018-03-25T08:32:56.484Z,14.18
2018-03-25T08:35:22.682Z,13.73
2018-03-25T08:37:48.884Z,16.08
2018-03-25T08:40:15.165Z,15.43
2018-03-25T08:42:41.361Z,15.85
2018-03-25T08:45:07.585Z,16.83
2018-03-25T08:47:33.824Z,19.17
2018-03-25T08:50:00.070Z,17.65
2018-03-25T08:52:27.072Z,17.85
2018-03-25T08:54:53.327Z,17.83
2018-03-25T08:57:19.503Z,18.52
2018-03-25T08:59:45.775Z,19.67
2018-03-25T09:02:12.034Z,19.02
2018-03-25T09:04:38.991Z,18.05
2018-03-25T09:07:05.281Z,18.23
2018-03-25T09:09:31.464Z,18.60
2018-03-25T09:11:57.656Z,18.80
2018-03-25T09:14:23.921Z,19.90
2018-03-25T09:16:50.148Z,17.05
2018-03-25T09:19:16.429Z,19.12
2018-03-25T09:21:42.720Z,17.17
2018-03-25T09:24:08.967Z,18.45
2018-03-25T09:26:35.192Z,18.85
2018-03-25T09:29:01.400Z,17.50
2018-03-25T09:31:27.615Z,17.52
2018-03-25T09:33:53.840Z,19.17
2018-03-25T09:36:20.054Z,17.02
2018-03-25T09:38:46.302Z,18.70
2018-03-25T09:41:16.014Z,18.13
2018-03-25T09:43:42.236Z,19.37
2018-03-25T09:46:08.473Z,17.80
2018-03-25T09:48:34.692Z,19.75
2018-03-25T09:51:00.959Z,19.77
2018-03-25T09:53:27.192Z,20.48
2018-03-25T09:55:53.419Z,19.92
2018-03-25T09:58:19.614Z,20.87
2018-03-25T10:00:48.911Z,21.00
2018-03-25T10:03:15.178Z,22.00
2018-03-25T10:05:41.407Z,20.30
2018-03-25T10:08:07.612Z,20.70
2018-03-25T10:10:33.846Z,19.67
2018-03-25T10:13:00.082Z,19.43
2018-03-25T10:15:26.282Z,20.23
2018-03-25T10:17:52.561Z,19.57
2018-03-25T10:20:18.789Z,21.73
2018-03-25T10:22:45.036Z,21.43
2018-03-25T10:25:12.029Z,20.57
2018-03-25T10:27:38.372Z,19.77
2018-03-25T10:30:04.609Z,21.10
2018-03-25T10:32:30.860Z,19.80
2018-03-25T10:34:57.812Z,22.00
2018-03-25T10:37:24.051Z,22.23
2018-03-25T10:39:51.021Z,23.00
2018-03-25T10:42:17.241Z,22.53
2018-03-25T10:44:43.453Z,20.17
2018-03-25T10:47:09.684Z,21.40
2018-03-25T10:49:35.934Z,21.73
2018-03-25T10:52:02.209Z,21.00
2018-03-25T10:54:28.472Z,20.20
2018-03-25T10:56:54.734Z,22.50
2018-03-25T10:59:20.999Z,22.40
2018-03-25T11:01:47.316Z,21.23
2018-03-25T11:04:13.576Z,23.10
2018-03-25T11:06:40.539Z,23.13
2018-03-25T11:09:07.148Z,25.30
2018-03-25T11:11:42.230Z,24.20
2018-03-25T11:14:08.481Z,23.87
2018-03-25T11:16:36.760Z,24.00
2018-03-25T11:19:06.726Z,23.20
2018-03-25T11:21:33.005Z,24.23
2018-03-25T11:27:03.847Z,22.80
2018-03-25T11:29:30.060Z,24.40
2018-03-25T11:31:56.312Z,23.03
2018-03-25T11:34:22.567Z,22.43
2018-03-25T11:36:48.805Z,24.20
2018-03-25T11:39:15.740Z,23.77
2018-03-25T11:41:42.931Z,23.67
2018-03-25T11:44:09.215Z,24.43
2018-03-25T11:46:35.437Z,23.60
2018-03-25T11:49:01.656Z,23.67
2018-03-25T11:51:27.841Z,23.30
2018-03-25T11:53:54.020Z,22.30
2018-03-25T11:56:20.260Z,22.33
2018-03-25T11:58:46.474Z,21.70
2018-03-25T12:01:13.507Z,22.10
2018-03-25T12:03:39.728Z,23.00
2018-03-25T12:06:05.962Z,22.13
2018-03-25T12:08:32.252Z,22.33
2018-03-25T12:10:58.446Z,22.80
2018-03-25T12:13:24.701Z,22.17
2018-03-25T12:15:50.965Z,21.60
2018-03-25T12:18:17.178Z,22.23
2018-03-25T12:20:43.423Z,25.07
2018-03-25T12:23:09.699Z,22.87
2018-03-25T12:25:36.652Z,20.50
2018-03-25T12:28:03.673Z,22.40
2018-03-25T12:30:29.872Z,23.30
2018-03-25T12:32:56.113Z,22.20
2018-03-25T12:35:22.357Z,18.97
2018-03-25T12:37:48.594Z,20.20
2018-03-25T12:40:14.825Z,20.47
2018-03-25T12:42:41.158Z,19.93
2018-03-25T12:45:08.143Z,19.90
2018-03-25T12:47:34.323Z,18.67
2018-03-25T12:50:00.608Z,18.33
2018-03-25T12:52:26.882Z,19.10
2018-03-25T12:54:53.103Z,16.13
2018-03-25T12:57:19.315Z,15.37
2018-03-25T12:59:45.551Z,17.37
2018-03-25T13:02:11.837Z,18.53
2018-03-25T13:04:38.111Z,17.43
2018-03-25T13:07:04.411Z,16.10
2018-03-25T13:09:30.655Z,14.83
2018-03-25T13:11:56.889Z,13.90
2018-03-25T13:14:23.098Z,15.13
2018-03-25T13:16:49.261Z,14.20
2018-03-25T13:19:15.480Z,13.80
2018-03-25T13:21:41.732Z,15.30
2018-03-25T13:24:08.673Z,14.53
2018-03-25T13:26:35.621Z,14.73
2018-03-25T13:29:02.662Z,17.10
2018-03-25T13:31:28.904Z,15.33
2018-03-25T13:33:55.844Z,15.53
2018-03-25T13:36:22.808Z,15.00
2018-03-25T13:38:49.064Z,15.30
2018-03-25T13:41:15.337Z,14.23
2018-03-25T13:43:42.329Z,14.47
2018-03-25T13:46:08.533Z,13.63
2018-03-25T13:48:35.480Z,13.37
2018-03-25T13:51:01.709Z,13.90
2018-03-25T13:53:27.983Z,12.63
2018-03-25T13:55:54.259Z,12.70
2018-03-25T13:58:20.482Z,12.77
2018-03-25T14:00:46.759Z,13.67
2018-03-25T14:03:12.989Z,13.20
2018-03-25T14:05:39.281Z,12.90
2018-03-25T14:08:05.560Z,12.93
2018-03-25T14:10:31.833Z,14.13
2018-03-25T14:12:58.104Z,11.63
2018-03-25T14:15:24.332Z,12.93
2018-03-25T14:17:50.566Z,11.10
2018-03-25T14:20:16.768Z,13.30
2018-03-25T14:22:42.996Z,11.70
2018-03-25T14:25:09.307Z,11.20
2018-03-25T14:27:35.557Z,10.03
2018-03-25T14:30:02.560Z,11.90
2018-03-25T14:32:29.546Z,11.43
2018-03-25T14:34:55.832Z,13.07
2018-03-25T14:37:22.062Z,10.73
2018-03-25T14:39:49.060Z,11.50
2018-03-25T14:42:15.282Z,12.73
2018-03-25T14:44:41.580Z,11.27
2018-03-25T14:47:08.532Z,12.90
2018-03-25T14:49:34.804Z,12.40
2018-03-25T14:52:01.036Z,12.00
2018-03-25T14:54:27.315Z,11.50
2018-03-25T14:56:53.525Z,12.90
2018-03-25T14:59:19.772Z,12.70
2018-03-25T15:01:46.775Z,13.70
2018-03-25T15:04:13.052Z,12.93
2018-03-25T15:06:39.241Z,13.33
2018-03-25T15:09:05.631Z,12.70
2018-03-25T15:11:31.808Z,12.90
2018-03-25T15:13:57.996Z,13.67
2018-03-25T15:16:24.250Z,12.30
2018-03-25T15:18:50.464Z,14.10
2018-03-25T15:21:16.757Z,12.63
2018-03-25T15:23:42.920Z,13.20
2018-03-25T15:26:09.168Z,14.00
2018-03-25T15:28:35.422Z,13.10
2018-03-25T15:31:02.402Z,14.30
2018-03-25T15:33:28.681Z,15.13
2018-03-25T15:35:54.893Z,15.07
2018-03-25T15:38:21.249Z,14.90
2018-03-25T15:40:47.417Z,16.17
2018-03-25T15:43:13.642Z,18.60
2018-03-25T15:45:39.914Z,17.37
2018-03-25T15:48:06.084Z,17.00
2018-03-25T15:50:32.338Z,16.10
2018-03-25T15:52:58.558Z,16.63
2018-03-25T15:55:24.805Z,16.67
2018-03-25T15:57:51.028Z,18.60
2018-03-25T16:00:17.296Z,16.07
2018-03-25T16:02:43.542Z,15.43
2018-03-25T16:05:10.489Z,16.00
2018-03-25T16:07:37.455Z,17.67
2018-03-25T16:10:03.682Z,15.87
2018-03-25T16:12:29.934Z,17.00
2018-03-25T16:14:56.281Z,17.00
2018-03-25T16:17:22.466Z,16.03
2018-03-25T16:19:48.734Z,16.27
2018-03-25T16:22:14.920Z,16.27
2018-03-25T16:24:41.118Z,17.37
2018-03-25T16:27:08.140Z,16.00
2018-03-25T16:29:34.432Z,15.73
2018-03-25T16:32:00.614Z,15.73
2018-03-25T16:34:26.834Z,14.40
2018-03-25T16:36:53.104Z,15.60
2018-03-25T16:39:23.051Z,16.30
2018-03-25T16:41:49.288Z,15.97
2018-03-25T16:44:15.564Z,16.47
2018-03-25T16:46:41.798Z,15.40
2018-03-25T16:49:08.041Z,16.53
2018-03-25T16:51:34.303Z,16.13
2018-03-25T16:54:00.584Z,17.63
2018-03-25T16:59:36.603Z,15.60
2018-03-25T17:02:02.807Z,16.70
2018-03-25T17:04:29.013Z,16.63
2018-03-25T17:06:55.237Z,17.03
2018-03-25T17:09:22.153Z,16.70
2018-03-25T17:11:48.397Z,16.80
2018-03-25T17:14:14.628Z,14.90
2018-03-25T17:16:40.924Z,15.30
2018-03-25T17:19:07.136Z,14.57
2018-03-25T17:21:35.426Z,16.20
2018-03-25T17:24:01.638Z,13.80
2018-03-25T17:26:27.836Z,14.07
2018-03-25T17:28:54.084Z,14.93
2018-03-25T17:31:20.320Z,13.50
2018-03-25T17:33:46.539Z,14.90
2018-03-25T17:36:12.792Z,16.17
2018-03-25T17:38:38.989Z,12.60
2018-03-25T17:41:05.249Z,13.50
2018-03-25T17:43:31.467Z,11.77
2018-03-25T17:45:57.729Z,12.53
2018-03-25T17:48:23.988Z,13.87
2018-03-25T17:50:50.217Z,13.80
2018-03-25T17:53:16.440Z,12.60
2018-03-25T17:55:43.424Z,12.10
2018-03-25T17:58:09.669Z,12.17
2018-03-25T18:00:35.899Z,12.67
2018-03-25T18:03:02.156Z,11.83
2018-03-25T18:05:29.113Z,13.07
2018-03-25T18:07:56.089Z,20.43
2018-03-25T18:10:22.308Z,22.93
2018-03-25T18:12:48.581Z,28.37
2018-03-25T18:15:14.819Z,22.40
2018-03-25T18:17:40.998Z,17.53
2018-03-25T18:20:07.234Z,14.63
2018-03-25T18:22:33.442Z,12.30
2018-03-25T18:24:59.667Z,10.23
2018-03-25T18:27:25.881Z,9.33
2018-03-25T18:29:52.808Z,9.37
2018-03-25T18:32:19.094Z,9.47
2018-03-25T18:34:45.296Z,8.50
2018-03-25T18:37:11.583Z,13.17
2018-03-25T18:39:37.732Z,23.37
2018-03-25T18:42:04.724Z,23.90
2018-03-25T18:44:30.992Z,28.37
2018-03-25T18:46:57.212Z,30.00
2018-03-25T18:49:23.547Z,24.70
2018-03-25T18:51:49.774Z,23.37
2018-03-25T18:54:16.271Z,17.53
2018-03-25T18:56:42.486Z,15.60
2018-03-25T18:59:08.748Z,13.60
2018-03-25T19:01:35.017Z,15.83
2018-03-25T19:04:01.982Z,15.47
2018-03-25T19:06:28.196Z,13.60
2018-03-25T19:08:54.502Z,11.53
2018-03-25T19:11:20.708Z,13.50
2018-03-25T19:13:47.122Z,8.87
2018-03-25T19:16:13.383Z,8.27
2018-03-25T19:18:39.609Z,13.63
2018-03-25T19:21:05.856Z,19.30
2018-03-25T19:23:32.816Z,18.77
2018-03-25T19:25:59.033Z,14.70
2018-03-25T19:28:25.996Z,11.60
2018-03-25T19:30:52.200Z,11.87
2018-03-25T19:33:18.483Z,11.03
2018-03-25T19:35:44.762Z,10.70
2018-03-25T19:38:11.750Z,9.80
2018-03-25T19:40:37.941Z,12.97
2018-03-25T19:43:04.945Z,14.50
2018-03-25T19:45:31.212Z,13.77
2018-03-25T19:47:58.176Z,16.93
2018-03-25T19:50:24.417Z,19.37
2018-03-25T19:52:50.662Z,15.03
2018-03-25T19:55:16.842Z,12.57
2018-03-25T19:57:43.896Z,13.37
2018-03-25T20:00:10.126Z,15.33
2018-03-25T20:02:38.203Z,20.67
2018-03-25T20:05:04.482Z,20.57
2018-03-25T20:07:30.676Z,19.57
2018-03-25T20:09:56.931Z,19.67
2018-03-25T20:12:23.168Z,21.40
2018-03-25T20:14:49.404Z,17.33
2018-03-25T20:17:15.728Z,12.33
2018-03-25T20:19:41.969Z,16.47
2018-03-25T20:22:08.217Z,17.97
2018-03-25T20:24:35.159Z,19.50
2018-03-25T20:27:02.193Z,15.90
2018-03-25T20:29:28.408Z,18.80
2018-03-25T20:31:54.624Z,19.50
2018-03-25T20:34:20.848Z,19.10
2018-03-25T20:36:47.090Z,19.50
2018-03-25T20:39:13.321Z,21.43
2018-03-25T20:41:39.656Z,20.63
2018-03-25T20:44:05.889Z,16.50
2018-03-25T20:46:32.109Z,14.67
2018-03-25T20:48:59.085Z,14.10
2018-03-25T20:51:25.394Z,14.83
2018-03-25T20:53:51.614Z,12.83
2018-03-25T20:56:17.866Z,18.10
2018-03-25T20:58:44.827Z,23.70
2018-03-25T21:01:11.031Z,24.60
2018-03-25T21:03:37.247Z,21.10
2018-03-25T21:06:03.483Z,18.13
2018-03-25T21:08:29.733Z,17.20
2018-03-25T21:10:56.710Z,16.43
2018-03-25T21:13:22.984Z,17.30
2018-03-25T21:15:49.202Z,15.53
2018-03-25T21:18:16.262Z,17.17
2018-03-25T21:20:42.460Z,16.80
2018-03-25T21:23:08.659Z,19.00
2018-03-25T21:25:34.921Z,19.57
2018-03-25T21:28:01.150Z,24.37
2018-03-25T21:30:27.444Z,26.17
2018-03-25T21:32:53.706Z,23.90
2018-03-25T21:35:19.935Z,19.93
2018-03-25T21:37:46.169Z,17.83
2018-03-25T21:40:12.425Z,20.77
2018-03-25T21:42:39.426Z,16.93
2018-03-25T21:45:05.679Z,15.83
2018-03-25T21:47:31.948Z,16.37
2018-03-25T21:49:58.157Z,15.57
2018-03-25T21:52:25.215Z,15.00
2018-03-25T21:54:51.438Z,13.93
2018-03-25T21:57:18.376Z,13.40
2018-03-25T21:59:44.715Z,13.20
2018-03-25T22:02:12.329Z,13.03
2018-03-25T22:04:38.555Z,12.30
2018-03-25T22:07:05.806Z,12.70
2018-03-25T22:09:32.045Z,12.60
2018-03-25T22:11:58.280Z,14.03
2018-03-25T22:14:24.532Z,14.38
2018-03-25T22:16:50.765Z,15.20
2018-03-25T22:19:17.309Z,13.50
2018-03-25T22:21:43.594Z,12.13
2018-03-25T22:24:09.913Z,13.37
2018-03-25T22:26:36.196Z,13.43
2018-03-25T22:29:02.476Z,10.60
2018-03-25T22:31:29.789Z,11.80
2018-03-25T22:33:56.010Z,13.97
2018-03-25T22:36:22.212Z,13.70
2018-03-25T22:38:48.485Z,13.55
2018-03-25T22:41:14.737Z,13.07
2018-03-25T22:43:40.974Z,12.32
2018-03-25T22:46:07.175Z,13.30
2018-03-25T22:48:33.506Z,12.90
2018-03-25T22:50:59.713Z,15.27
2018-03-25T22:53:25.938Z,13.98
2018-03-25T22:55:52.152Z,13.90
2018-03-25T22:58:18.365Z,15.00
2018-03-25T23:00:44.756Z,14.68
2018-03-25T23:03:11.041Z,13.65
2018-03-25T23:05:37.993Z,13.80
2018-03-25T23:08:04.252Z,15.13
2018-03-25T23:10:30.489Z,14.43
2018-03-25T23:12:56.712Z,15.00
2018-03-25T23:15:22.932Z,14.57
2018-03-25T23:17:49.146Z,13.48
2018-03-25T23:20:15.389Z,14.13
2018-03-25T23:22:41.626Z,13.43
2018-03-25T23:25:07.889Z,12.45
2018-03-25T23:27:34.174Z,14.90
2018-03-25T23:30:00.389Z,16.52
2018-03-25T23:32:26.577Z,16.77
2018-03-25T23:34:53.579Z,14.63
2018-03-25T23:37:19.811Z,16.87
2018-03-25T23:39:46.042Z,15.55
2018-03-25T23:42:12.295Z,16.92
2018-03-25T23:44:38.496Z,17.60
2018-03-25T23:47:04.689Z,15.75
2018-03-25T23:49:30.931Z,16.60
2018-03-25T23:51:57.194Z,15.45
2018-03-25T23:54:23.456Z,14.75
2018-03-25T23:56:49.696Z,13.82
2018-03-25T23:59:15.896Z,13.10
